Time;durP1;ratioP1;P1;durP2;ratioP2;P2;SDS_P1;SDS_P2;PMS_P1;PMS_P2;Temp;Humidity;BMP_temperature;BMP_pressure;BME280_temperature;BME280_humidity;BME280_pressure;Samples;Min_cycle;Max_cycle;Signal;HPM_P1;HPM_P2
2022/12/09 00:02:47;;;;;;;21.57;10.70;;;4.70;1.00;;;;;;5078317;28;20244;-87
2022/12/09 00:11:57;;;;;;;322.88;79.10;;;4.70;1.00;;;;;;5087822;28;20664;-88
2022/12/09 00:15:17;;;;;;;332.77;85.73;;;4.70;1.00;;;;;;5078216;28;20198;-88
2022/12/09 00:18:35;;;;;;;58.97;29.20;;;4.60;1.00;;;;;;5079013;28;20257;-88
2022/12/09 00:21:47;;;;;;;530.00;111.45;;;4.60;1.00;;;;;;5073862;28;20417;-88
2022/12/09 00:37:40;;;;;;;500.67;102.07;;;4.50;1.00;;;;;;5073672;28;20420;-78
2022/12/09 00:43:28;;;;;;;504.73;113.53;;;4.50;1.00;;;;;;5088465;28;20244;-78
2022/12/09 00:49:16;;;;;;;440.83;98.20;;;4.50;1.00;;;;;;5075756;28;20169;-88
2022/12/09 00:52:05;;;;;;;174.93;39.50;;;4.50;1.00;;;;;;5072824;28;20269;-88
2022/12/09 00:57:53;;;;;;;513.75;107.82;;;4.50;1.00;;;;;;5074239;28;20229;-88
2022/12/09 01:01:05;;;;;;;23.33;12.90;;;4.50;1.00;;;;;;5073261;28;20159;-88
2022/12/09 01:07:00;;;;;;;356.63;83.75;;;4.50;1.00;;;;;;5072961;28;20425;-78
2022/12/09 01:12:47;;;;;;;22.93;12.37;;;4.40;1.00;;;;;;5080157;28;20221;-78
2022/12/09 01:18:54;;;;;;;528.75;121.70;;;4.40;1.00;;;;;;5081746;28;20197;-79
2022/12/09 01:22:11;;;;;;;547.20;114.65;;;4.40;1.00;;;;;;5086891;28;20232;-78
2022/12/09 01:28:36;;;;;;;547.40;117.05;;;4.40;1.00;;;;;;5086784;28;20534;-78
2022/12/09 01:37:46;;;;;;;573.53;112.60;;;4.30;1.00;;;;;;5077365;28;20201;-78
2022/12/09 01:44:17;;;;;;;25.25;13.27;;;4.30;1.00;;;;;;5082744;28;20252;-79
2022/12/09 01:53:31;;;;;;;195.85;62.45;;;4.20;1.00;;;;;;5084386;28;20423;-78
2022/12/09 01:59:20;;;;;;;22.70;12.00;;;4.20;1.00;;;;;;5083469;28;20260;-78
2022/12/09 02:05:07;;;;;;;24.88;12.50;;;4.10;1.00;;;;;;5086491;28;20228;-78
2022/12/09 02:07:42;;;;;;;21.80;12.77;;;4.10;1.00;;;;;;5089110;28;20179;-78
2022/12/09 02:10:19;;;;;;;22.10;11.77;;;4.00;1.00;;;;;;5091544;28;20408;-78
2022/12/09 02:13:07;;;;;;;22.27;12.60;;;4.00;1.00;;;;;;5097011;28;20393;-79
2022/12/09 02:22:39;;;;;;;25.05;13.50;;;4.10;1.00;;;;;;5076388;28;20691;-79
2022/12/09 02:28:49;;;;;;;26.25;13.02;;;4.00;1.00;;;;;;5082319;28;20205;-78
2022/12/09 02:41:40;;;;;;;21.70;12.90;;;4.00;1.00;;;;;;5086306;28;20463;-78
2022/12/09 02:47:31;;;;;;;25.10;13.55;;;4.00;1.00;;;;;;5077863;28;20435;-78
2022/12/09 02:50:35;;;;;;;25.30;12.95;;;4.00;1.00;;;;;;5080811;28;20179;-88
2022/12/09 02:53:24;;;;;;;25.95;13.52;;;4.00;1.00;;;;;;5088897;28;20177;-88
2022/12/09 02:59:12;;;;;;;24.05;13.15;;;4.00;1.00;;;;;;5076622;28;20220;-88
2022/12/09 03:02:27;;;;;;;26.40;14.10;;;4.00;1.00;;;;;;5087841;28;20257;-88
2022/12/09 03:05:41;;;;;;;24.43;13.50;;;4.00;1.00;;;;;;5014966;28;20256;-88
2022/12/09 03:08:47;;;;;;;30.63;12.48;;;4.00;1.00;;;;;;5018025;28;20423;-88
2022/12/09 03:12:05;;;;;;;29.67;14.50;;;4.00;1.00;;;;;;5034074;28;20268;-88
2022/12/09 03:17:54;;;;;;;22.45;13.05;;;4.00;1.00;;;;;;5032060;28;20619;-88
2022/12/09 03:23:45;;;;;;;26.80;13.80;;;4.00;1.00;;;;;;5016710;28;20780;-88
2022/12/09 03:29:36;;;;;;;21.85;13.13;;;4.00;1.00;;;;;;5013888;28;20234;-88
2022/12/09 03:32:36;;;;;;;23.40;13.87;;;3.90;1.00;;;;;;5014361;28;20659;-88
2022/12/09 03:38:27;;;;;;;29.23;13.60;;;3.90;1.00;;;;;;5014100;28;20221;-87
2022/12/09 03:45:23;;;;;;;24.52;13.77;;;3.90;1.00;;;;;;5075258;28;20724;-88
2022/12/09 03:47:50;;;;;;;19.10;12.30;;;3.90;1.00;;;;;;5074411;28;20226;-88
2022/12/09 03:50:42;;;;;;;25.50;13.20;;;3.90;1.00;;;;;;5080794;28;20218;-78
2022/12/09 03:56:35;;;;;;;25.20;13.95;;;3.80;1.00;;;;;;5081781;28;20559;-78
2022/12/09 04:09:06;;;;;;;26.70;14.02;;;3.80;1.00;;;;;;5080292;28;20186;-78
2022/12/09 04:14:53;;;;;;;32.20;14.40;;;3.80;1.00;;;;;;5077557;28;20221;-78
2022/12/09 04:18:11;;;;;;;28.80;14.27;;;3.70;1.00;;;;;;5091934;28;20170;-78
2022/12/09 04:23:59;;;;;;;24.73;13.82;;;3.80;1.00;;;;;;5075377;28;20182;-79
2022/12/09 04:29:46;;;;;;;22.38;12.85;;;3.80;1.00;;;;;;5087137;28;20314;-78
2022/12/09 04:32:12;;;;;;;30.20;14.90;;;3.80;1.00;;;;;;5087167;28;20269;-79
2022/12/09 04:41:21;;;;;;;23.50;14.50;;;3.80;1.00;;;;;;5073830;28;20205;-78
2022/12/09 04:44:00;;;;;;;25.20;14.60;;;3.70;1.00;;;;;;5073490;28;20178;-78
2022/12/09 04:47:11;;;;;;;25.92;14.70;;;3.70;1.00;;;;;;5076909;28;20183;-78
2022/12/09 04:52:58;;;;;;;26.57;15.30;;;3.70;1.00;;;;;;5073908;28;20201;-78
2022/12/09 04:55:24;;;;;;;26.23;14.43;;;3.70;1.00;;;;;;5073534;28;20444;-78
2022/12/09 05:01:16;;;;;;;27.52;13.68;;;3.70;1.00;;;;;;5082993;28;20653;-78
2022/12/09 05:04:00;;;;;;;24.63;14.48;;;3.70;1.00;;;;;;5073641;28;20167;-78
2022/12/09 05:06:59;;;;;;;28.02;15.07;;;3.70;1.00;;;;;;5079429;28;20179;-78
2022/12/09 05:16:11;;;;;;;29.45;15.82;;;3.70;1.00;;;;;;5076717;28;20206;-78
2022/12/09 05:21:59;;;;;;;25.02;14.18;;;3.60;1.00;;;;;;5084781;28;20228;-78
2022/12/09 05:27:46;;;;;;;26.85;14.38;;;3.60;1.00;;;;;;5090440;28;20177;-78
2022/12/09 05:30:42;;;;;;;23.47;13.80;;;3.60;1.00;;;;;;5083673;28;20194;-79
2022/12/09 05:36:54;;;;;;;27.90;15.27;;;3.50;1.00;;;;;;5093239;28;20215;-88
2022/12/09 05:46:19;;;;;;;29.67;15.25;;;3.40;1.00;;;;;;5082277;28;20200;-88
2022/12/09 05:52:06;;;;;;;26.83;14.02;;;3.40;1.00;;;;;;5075436;28;20178;-79
2022/12/09 06:08:00;;;;;;;24.65;15.20;;;3.30;1.00;;;;;;5091404;28;20300;-79
2022/12/09 06:10:40;;;;;;;27.67;15.97;;;3.30;1.00;;;;;;5090671;28;20225;-85
2022/12/09 06:19:49;;;;;;;26.08;14.73;;;3.30;1.00;;;;;;5085028;28;20727;-86
2022/12/09 06:26:18;;;;;;;25.25;14.80;;;3.20;1.00;;;;;;5089346;28;20243;-86
2022/12/09 06:28:50;;;;;;;26.95;15.85;;;3.20;1.00;;;;;;5082301;28;20189;-86
2022/12/09 06:31:16;;;;;;;25.60;14.70;;;3.10;1.00;;;;;;5094366;28;20736;-86
2022/12/09 06:37:14;;;;;;;27.50;14.63;;;3.10;1.00;;;;;;5081880;28;20465;-75
2022/12/09 06:39:48;;;;;;;27.48;16.38;;;3.00;1.00;;;;;;5082190;28;20182;-75
2022/12/09 06:42:14;;;;;;;26.70;14.20;;;3.00;1.00;;;;;;5076233;28;20210;-75
2022/12/09 06:44:54;;;;;;;24.87;14.63;;;3.10;1.00;;;;;;5082031;28;20225;-75
2022/12/09 06:48:12;;;;;;;23.33;14.35;;;3.20;1.00;;;;;;5081469;28;20510;-75
2022/12/09 06:50:50;;;;;;;29.60;16.15;;;3.30;1.00;;;;;;5087308;28;20185;-77
2022/12/09 06:53:24;;;;;;;27.52;14.85;;;3.30;1.00;;;;;;5076034;28;20607;-77
2022/12/09 06:55:54;;;;;;;26.13;14.75;;;3.40;1.00;;;;;;5076718;28;20534;-74
2022/12/09 06:58:24;;;;;;;25.67;14.95;;;3.50;1.00;;;;;;5095890;28;20610;-75
2022/12/09 07:00:54;;;;;;;23.17;13.50;;;3.50;1.00;;;;;;5076445;28;20201;-76
2022/12/09 07:03:50;;;;;;;27.90;14.45;;;3.50;1.00;;;;;;5092168;28;20641;-76
2022/12/09 07:06:54;;;;;;;30.35;13.25;;;3.60;1.00;;;;;;5083305;28;20185;-88
2022/12/09 07:09:24;;;;;;;24.40;13.50;;;3.60;1.00;;;;;;5083136;28;20245;-85
2022/12/09 07:12:24;;;;;;;29.30;13.55;;;3.60;1.00;;;;;;5086953;28;20779;-84
2022/12/09 07:15:00;;;;;;;24.27;14.00;;;3.60;1.00;;;;;;5074777;28;20209;-83
2022/12/09 07:17:54;;;;;;;22.77;13.05;;;3.60;1.00;;;;;;5079950;28;20207;-82
2022/12/09 07:20:24;;;;;;;26.05;13.75;;;3.60;1.00;;;;;;5080113;28;20194;-85
2022/12/09 07:22:55;;;;;;;22.52;12.68;;;3.60;1.00;;;;;;5076288;28;20238;-82
2022/12/09 07:28:43;;;;;;;24.45;14.10;;;3.40;1.00;;;;;;5079653;28;20223;-86
2022/12/09 07:31:54;;;;;;;27.35;12.90;;;3.30;1.00;;;;;;5081941;28;20187;-86
2022/12/09 07:34:54;;;;;;;27.50;13.52;;;3.20;1.00;;;;;;5074115;28;20191;-86
2022/12/09 07:38:00;;;;;;;24.60;12.70;;;3.10;1.00;;;;;;5092552;28;20170;-86
2022/12/09 07:40:30;;;;;;;25.33;13.88;;;2.90;1.00;;;;;;5075889;28;20220;-85
2022/12/09 07:42:56;;;;;;;20.10;12.00;;;2.90;1.00;;;;;;5077901;28;20174;-85
2022/12/09 07:45:24;;;;;;;25.80;13.40;;;2.90;1.00;;;;;;5077171;28;20273;-86
2022/12/09 07:48:24;;;;;;;25.08;13.45;;;2.70;1.00;;;;;;5093421;28;20404;-86
2022/12/09 07:51:24;;;;;;;26.08;13.63;;;2.60;1.00;;;;;;5077366;28;20592;-86
2022/12/09 07:54:13;;;;;;;26.08;14.20;;;2.50;1.00;;;;;;5073827;28;20179;-75
2022/12/09 07:57:24;;;;;;;26.05;13.68;;;2.30;1.00;;;;;;5074587;28;20206;-85
2022/12/09 08:00:24;;;;;;;25.80;13.85;;;2.20;1.00;;;;;;5091945;28;20177;-90
2022/12/09 08:03:24;;;;;;;29.70;15.65;;;2.10;1.00;;;;;;5089154;28;20177;-90
2022/12/09 08:06:25;;;;;;;33.20;14.43;;;2.00;1.00;;;;;;5086448;28;20166;-88
2022/12/09 08:08:59;;;;;;;28.95;14.48;;;1.90;1.00;;;;;;5086852;28;20265;-80
2022/12/09 08:11:26;;;;;;;27.55;15.32;;;1.90;1.00;;;;;;5084372;28;20181;-80
2022/12/09 08:14:24;;;;;;;31.60;16.38;;;1.80;1.00;;;;;;5080815;28;20540;-80
2022/12/09 08:17:25;;;;;;;139.73;65.10;;;1.80;1.00;;;;;;5087233;28;20174;-80
2022/12/09 08:20:24;;;;;;;35.78;16.15;;;1.70;1.00;;;;;;5073818;28;20236;-80
2022/12/09 08:23:00;;;;;;;30.23;16.35;;;1.70;1.00;;;;;;5075017;28;20178;-80
2022/12/09 08:25:42;;;;;;;33.92;17.08;;;1.60;1.00;;;;;;5078666;28;20547;-80
2022/12/09 08:28:25;;;;;;;30.38;17.35;;;1.60;1.00;;;;;;5078952;28;20174;-79
2022/12/09 08:30:51;;;;;;;34.50;16.30;;;1.60;1.00;;;;;;5085941;28;20277;-81
2022/12/09 08:33:24;;;;;;;36.43;15.00;;;1.60;1.00;;;;;;5085970;28;20264;-80
2022/12/09 08:36:25;;;;;;;38.70;16.85;;;1.60;1.00;;;;;;5092773;28;20798;-80
2022/12/09 08:42:28;;;;;;;34.95;17.08;;;1.70;1.00;;;;;;5074981;28;20186;-89
2022/12/09 08:44:54;;;;;;;42.78;18.48;;;1.70;1.00;;;;;;5087160;28;20182;-83
2022/12/09 08:47:30;;;;;;;83.22;35.88;;;1.80;1.00;;;;;;5074899;28;20666;-90
2022/12/09 08:50:30;;;;;;;112.63;44.67;;;1.80;1.00;;;;;;5076082;28;20330;-89
2022/12/09 08:53:48;;;;;;;48.85;20.98;;;1.80;1.00;;;;;;5093666;28;20185;-92
2022/12/09 08:56:46;;;;;;;48.92;21.73;;;1.80;1.00;;;;;;5089971;28;20289;-88
2022/12/09 08:59:13;;;;;;;44.58;20.38;;;1.90;1.00;;;;;;5090524;28;20178;-88
2022/12/09 09:01:39;;;;;;;40.75;19.85;;;2.00;1.00;;;;;;5073195;28;20255;-88
2022/12/09 09:04:24;;;;;;;48.40;20.90;;;2.10;1.00;;;;;;5073210;28;20224;-88
2022/12/09 09:07:24;;;;;;;43.95;20.80;;;2.00;1.00;;;;;;5080754;28;20447;-88
2022/12/09 09:10:30;;;;;;;39.25;19.50;;;2.10;1.00;;;;;;5073143;28;20171;-88
2022/12/09 09:16:22;;;;;;;45.70;20.40;;;2.20;1.00;;;;;;5076584;28;20283;-87
2022/12/09 09:18:55;;;;;;;40.95;21.08;;;2.30;1.00;;;;;;5080050;28;20178;-86
2022/12/09 09:21:54;;;;;;;39.00;19.50;;;2.30;1.00;;;;;;5092643;28;20216;-89
2022/12/09 09:24:57;;;;;;;129.93;60.85;;;2.40;1.00;;;;;;5088833;28;20267;-90
2022/12/09 09:27:42;;;;;;;40.55;17.50;;;2.60;1.00;;;;;;5092703;28;20177;-90
2022/12/09 09:30:24;;;;;;;37.97;17.60;;;2.70;1.00;;;;;;5072250;28;20198;-90
2022/12/09 09:36:19;;;;;;;37.28;16.63;;;2.90;1.00;;;;;;5079289;28;20205;-90
2022/12/09 09:38:56;;;;;;;30.05;14.65;;;3.10;1.00;;;;;;5077012;28;20179;-90
2022/12/09 09:41:44;;;;;;;28.35;14.65;;;3.30;1.00;;;;;;5077042;28;20203;-90
2022/12/09 09:44:36;;;;;;;25.50;13.38;;;3.40;1.00;;;;;;5076959;28;20649;-89
2022/12/09 09:47:40;;;;;;;24.40;12.13;;;3.40;1.00;;;;;;5080159;28;20570;-90
2022/12/09 09:50:34;;;;;;;30.65;13.85;;;3.40;1.00;;;;;;5106827;28;20173;-90
2022/12/09 09:53:29;;;;;;;22.98;12.00;;;3.30;1.00;;;;;;5085971;28;20278;-90
2022/12/09 09:59:54;;;;;;;22.92;11.43;;;3.30;1.00;;;;;;5077197;28;20185;-90
2022/12/09 10:02:57;;;;;;;20.33;11.13;;;3.30;1.00;;;;;;5085435;28;20630;-90
2022/12/09 10:05:32;;;;;;;23.23;11.85;;;3.30;1.00;;;;;;5084550;28;20174;-90
2022/12/09 10:08:25;;;;;;;79.45;32.22;;;3.30;1.00;;;;;;5080681;28;20178;-90
2022/12/09 10:11:24;;;;;;;60.17;25.00;;;3.30;1.00;;;;;;5091962;28;20187;-89
2022/12/09 10:17:27;;;;;;;19.20;10.15;;;3.30;1.00;;;;;;5079050;28;20247;-90
2022/12/09 10:20:25;;;;;;;20.48;10.85;;;3.30;1.00;;;;;;5085688;28;20182;-90
2022/12/09 10:23:01;;;;;;;22.05;9.77;;;3.40;1.00;;;;;;5080797;28;20269;-90
2022/12/09 10:25:56;;;;;;;19.67;10.40;;;3.40;1.00;;;;;;5082647;28;20268;-83
2022/12/09 10:28:43;;;;;;;20.08;10.60;;;3.50;1.00;;;;;;5076157;28;20186;-82
2022/12/09 10:31:12;;;;;;;21.40;11.18;;;3.60;1.00;;;;;;5084813;28;20200;-82
2022/12/09 10:33:48;;;;;;;25.73;11.95;;;3.60;1.00;;;;;;5087710;28;20554;-82
2022/12/09 10:36:28;;;;;;;24.00;11.43;;;3.60;1.00;;;;;;5074930;28;20202;-82
2022/12/09 10:38:55;;;;;;;18.60;11.68;;;3.60;1.00;;;;;;5076369;28;20278;-86
2022/12/09 10:45:24;;;;;;;20.27;11.00;;;3.60;1.00;;;;;;5097524;28;20216;-87
2022/12/09 10:47:54;;;;;;;20.13;11.60;;;3.60;1.00;;;;;;5084927;28;20178;-88
2022/12/09 10:53:47;;;;;;;22.27;11.52;;;3.70;1.00;;;;;;5076628;28;20189;-88
2022/12/09 11:00:18;;;;;;;20.35;11.60;;;3.80;1.00;;;;;;5090980;28;20197;-89
2022/12/09 11:06:28;;;;;;;20.27;11.43;;;3.80;1.00;;;;;;5078669;28;20593;-89
2022/12/09 11:15:41;;;;;;;18.58;10.05;;;3.80;1.00;;;;;;5096494;28;20200;-87
2022/12/09 11:25:30;;;;;;;18.33;10.30;;;3.80;1.00;;;;;;5085987;28;20201;-82
2022/12/09 11:28:49;;;;;;;21.30;11.18;;;3.80;1.00;;;;;;5085145;28;20174;-81
2022/12/09 11:38:03;;;;;;;19.20;11.40;;;3.70;1.00;;;;;;5087312;28;20231;-80
2022/12/09 11:43:54;;;;;;;16.38;10.93;;;3.80;1.00;;;;;;5095253;28;20190;-80
2022/12/09 11:46:29;;;;;;;19.42;11.60;;;3.90;1.00;;;;;;5094168;28;20154;-80
2022/12/09 11:49:06;;;;;;;18.55;10.63;;;3.80;1.00;;;;;;5077849;28;20186;-80
2022/12/09 11:55:26;;;;;;;16.80;10.18;;;3.80;1.00;;;;;;5088988;28;20463;-81
2022/12/09 12:01:56;;;;;;;17.17;11.10;;;3.90;1.00;;;;;;5077732;28;20181;-80
2022/12/09 12:05:00;;;;;;;17.05;10.80;;;4.00;1.00;;;;;;5080619;28;20171;-81
2022/12/09 12:08:21;;;;;;;15.77;9.85;;;4.10;1.00;;;;;;5081052;28;20179;-79
2022/12/09 12:11:33;;;;;;;15.70;10.10;;;4.30;1.00;;;;;;5012979;28;20281;-80
2022/12/09 12:14:31;;;;;;;13.05;8.35;;;4.50;1.00;;;;;;4925395;29;20199;-79
2022/12/09 12:17:35;;;;;;;17.87;8.77;;;4.60;1.00;;;;;;4934982;29;20191;-77
2022/12/09 12:20:13;;;;;;;16.57;10.10;;;5.00;1.00;;;;;;4934923;29;20488;-78
2022/12/09 12:23:19;;;;;;;14.87;9.10;;;5.10;1.00;;;;;;4935131;29;20451;-77
2022/12/09 12:26:11;;;;;;;12.40;8.33;;;5.20;1.00;;;;;;4935078;29;20463;-82
2022/12/09 12:28:55;;;;;;;17.33;8.70;;;5.50;1.00;;;;;;4915707;29;20924;-81
2022/12/09 12:32:00;;;;;;;11.10;6.90;;;5.80;1.00;;;;;;4932798;29;20535;-81
2022/12/09 12:34:59;;;;;;;9.57;5.43;;;6.00;1.00;;;;;;4934733;29;20423;-81
2022/12/09 12:37:43;;;;;;;12.43;7.10;;;6.10;1.00;;;;;;4932909;29;21090;-81
2022/12/09 12:40:49;;;;;;;10.30;5.33;;;6.00;1.00;;;;;;4934905;29;20486;-77
2022/12/09 12:47:00;;;;;;;10.23;7.03;;;5.90;1.00;;;;;;5022020;28;20469;-79
2022/12/09 12:50:00;;;;;;;15.03;6.73;;;5.80;1.00;;;;;;5031758;28;20411;-80
2022/12/09 12:52:49;;;;;;;13.93;6.93;;;5.90;1.00;;;;;;5087082;28;20417;-79
2022/12/09 12:55:43;;;;;;;10.40;5.60;;;5.90;1.00;;;;;;5075008;28;20492;-80
2022/12/09 12:58:34;;;;;;;14.50;5.60;;;5.90;1.00;;;;;;5080782;28;20410;-79
2022/12/09 13:01:45;;;;;;;13.13;8.77;;;5.90;1.00;;;;;;5074867;28;20449;-78
2022/12/09 13:04:38;;;;;;;11.40;7.53;;;5.80;1.00;;;;;;5085104;28;20785;-78
2022/12/09 13:07:30;;;;;;;7.37;4.83;;;5.50;1.00;;;;;;5073749;28;20822;-80
2022/12/09 13:10:22;;;;;;;15.30;8.33;;;5.50;1.00;;;;;;5082888;28;20420;-81
2022/12/09 13:13:00;;;;;;;13.90;8.77;;;5.50;1.00;;;;;;5082235;28;20481;-80
2022/12/09 13:16:07;;;;;;;11.67;7.47;;;5.40;1.00;;;;;;5089591;28;20456;-79
2022/12/09 13:19:06;;;;;;;13.77;7.07;;;5.40;1.00;;;;;;5074257;28;20407;-79
2022/12/09 13:21:50;;;;;;;10.50;7.33;;;5.30;1.00;;;;;;5090626;28;20456;-79
2022/12/09 13:24:40;;;;;;;11.80;6.60;;;5.30;1.00;;;;;;5079376;28;20503;-80
2022/12/09 13:27:30;;;;;;;7.33;3.87;;;5.10;1.00;;;;;;5076503;28;20405;-81
2022/12/09 13:29:56;;;;;;;12.10;7.90;;;5.10;1.00;;;;;;5081129;28;20448;-81
2022/12/09 13:32:31;;;;;;;12.90;8.10;;;5.10;1.00;;;;;;5087321;28;20841;-80
2022/12/09 13:35:18;;;;;;;13.57;7.10;;;5.00;1.00;;;;;;5075600;28;20194;-82
2022/12/09 13:37:44;;;;;;;11.37;7.60;;;5.10;1.00;;;;;;5074795;28;20421;-81
2022/12/09 13:40:35;;;;;;;10.50;6.47;;;5.10;1.00;;;;;;5086770;28;20845;-81
2022/12/09 13:43:01;;;;;;;8.80;6.53;;;5.10;1.00;;;;;;5072227;28;20167;-80
2022/12/09 13:46:06;;;;;;;16.10;7.57;;;5.10;1.00;;;;;;5078567;28;20435;-79
2022/12/09 13:48:44;;;;;;;11.00;7.80;;;5.10;1.00;;;;;;5077948;28;20189;-80
2022/12/09 13:51:57;;;;;;;11.70;7.40;;;5.00;1.00;;;;;;5081816;28;20443;-80
2022/12/09 13:55:00;;;;;;;11.70;7.73;;;4.90;1.00;;;;;;5073024;28;20428;-87
2022/12/09 13:58:06;;;;;;;11.10;8.80;;;4.90;1.00;;;;;;5085569;28;20494;-79
2022/12/09 14:10:49;;;;;;;12.73;7.60;;;5.10;1.00;;;;;;5079223;28;20407;-79
2022/12/09 14:13:54;;;;;;;14.27;7.17;;;5.20;1.00;;;;;;5079226;28;20425;-86
2022/12/09 14:20:06;;;;;;;9.40;5.80;;;5.40;1.00;;;;;;5079060;28;20458;-87
2022/12/09 14:23:23;;;;;;;8.87;6.50;;;5.40;1.00;;;;;;5075956;28;20445;-88
2022/12/09 14:25:56;;;;;;;10.47;7.00;;;5.40;1.00;;;;;;5084892;28;20961;-88
2022/12/09 14:28:51;;;;;;;14.20;7.60;;;5.40;1.00;;;;;;5074853;28;20764;-80
2022/12/09 14:31:48;;;;;;;10.93;7.30;;;5.30;1.00;;;;;;5076037;28;20448;-80
2022/12/09 14:37:56;;;;;;;8.73;6.57;;;5.20;1.00;;;;;;5014000;28;20415;-80
2022/12/09 14:40:52;;;;;;;9.67;6.63;;;5.00;1.00;;;;;;5010210;28;20418;-70
2022/12/09 14:43:51;;;;;;;14.60;6.40;;;4.90;1.00;;;;;;5006721;28;20965;-70
2022/12/09 14:50:19;;;;;;;10.07;6.37;;;4.50;1.00;;;;;;5012672;28;20438;-80
2022/12/09 14:56:56;;;;;;;9.70;6.45;;;4.20;1.00;;;;;;5009914;28;20830;-88
2022/12/09 15:02:50;;;;;;;15.88;8.13;;;4.00;1.00;;;;;;5014240;28;20423;-84
2022/12/09 15:08:40;;;;;;;17.85;8.98;;;3.90;1.00;;;;;;5007904;28;20184;-84
2022/12/09 15:14:27;;;;;;;14.05;8.65;;;3.80;1.00;;;;;;5076668;28;20254;-85
2022/12/09 15:20:38;;;;;;;16.00;9.10;;;3.70;1.00;;;;;;5078696;28;20603;-84
2022/12/09 15:26:34;;;;;;;11.98;8.05;;;3.60;1.00;;;;;;5081209;28;20186;-82
2022/12/09 15:29:03;;;;;;;15.77;9.70;;;3.50;1.00;;;;;;5082285;28;20174;-82
2022/12/09 15:34:53;;;;;;;14.48;9.40;;;3.50;1.00;;;;;;5088335;28;20189;-73
2022/12/09 15:37:27;;;;;;;16.00;10.13;;;3.50;1.00;;;;;;5087127;28;20608;-73
2022/12/09 15:40:07;;;;;;;12.10;8.10;;;3.50;1.00;;;;;;5075813;28;20316;-74
2022/12/09 15:42:36;;;;;;;16.88;8.55;;;3.50;1.00;;;;;;5097498;28;20213;-71
2022/12/09 15:45:07;;;;;;;19.77;9.55;;;3.50;1.00;;;;;;5078957;28;20177;-73
2022/12/09 15:47:41;;;;;;;18.20;8.68;;;3.50;1.00;;;;;;5089935;28;20182;-72
2022/12/09 15:50:17;;;;;;;13.07;8.35;;;3.50;1.00;;;;;;5089946;28;20654;-73
2022/12/09 15:53:16;;;;;;;13.40;9.15;;;3.40;1.00;;;;;;5086404;28;20194;-71
2022/12/09 15:56:12;;;;;;;15.05;9.18;;;3.40;1.00;;;;;;5079518;28;20203;-72
2022/12/09 15:58:42;;;;;;;15.10;8.82;;;3.50;1.00;;;;;;5078299;28;20266;-72
2022/12/09 16:01:32;;;;;;;15.57;9.05;;;3.40;1.00;;;;;;5084602;28;20189;-72
2022/12/09 16:04:04;;;;;;;13.65;9.10;;;3.40;1.00;;;;;;5087950;28;20245;-72
2022/12/09 16:06:34;;;;;;;24.10;8.68;;;3.40;1.00;;;;;;5074176;28;20668;-72
2022/12/09 16:09:01;;;;;;;13.48;8.80;;;3.40;1.00;;;;;;5077728;28;20186;-72
2022/12/09 16:11:44;;;;;;;16.30;9.38;;;3.40;1.00;;;;;;5075848;28;20710;-73
2022/12/09 16:14:11;;;;;;;12.63;8.15;;;3.40;1.00;;;;;;5082604;28;20187;-71
2022/12/09 16:16:49;;;;;;;9.68;7.55;;;3.40;1.00;;;;;;5078557;28;22100;-72
2022/12/09 16:19:35;;;;;;;12.68;7.70;;;3.40;1.00;;;;;;5074815;28;20218;-71
2022/12/09 16:22:14;;;;;;;12.88;8.38;;;3.40;1.00;;;;;;5078301;28;20232;-71
2022/12/09 16:24:49;;;;;;;13.43;8.65;;;3.30;1.00;;;;;;5074475;28;20516;-78
2022/12/09 16:27:19;;;;;;;13.65;8.00;;;3.40;1.00;;;;;;5078328;28;20215;-71
2022/12/09 16:29:52;;;;;;;15.00;8.30;;;3.30;1.00;;;;;;5082434;28;20598;-71
2022/12/09 16:32:30;;;;;;;15.43;8.32;;;3.30;1.00;;;;;;5080190;28;20182;-70
2022/12/09 16:35:18;;;;;;;14.10;8.55;;;3.30;1.00;;;;;;5082020;28;20206;-71
2022/12/09 16:37:56;;;;;;;10.05;7.43;;;3.40;1.00;;;;;;5081832;28;20167;-71
2022/12/09 16:40:25;;;;;;;13.10;7.47;;;3.40;1.00;;;;;;5082089;28;20173;-71
2022/12/09 16:43:15;;;;;;;13.65;8.60;;;3.50;1.00;;;;;;5084820;28;20178;-73
2022/12/09 16:45:47;;;;;;;12.23;7.40;;;3.50;1.00;;;;;;5073391;28;20187;-72
2022/12/09 16:48:13;;;;;;;13.63;7.53;;;3.50;1.00;;;;;;5073688;28;20444;-73
2022/12/09 16:50:54;;;;;;;9.57;7.07;;;3.50;1.00;;;;;;5080704;28;20191;-71
2022/12/09 16:53:33;;;;;;;15.35;7.47;;;3.50;1.00;;;;;;5082156;28;20428;-73
2022/12/09 16:56:02;;;;;;;9.80;6.90;;;3.50;1.00;;;;;;5073275;28;20233;-73
2022/12/09 16:58:31;;;;;;;10.93;7.63;;;3.50;1.00;;;;;;5073881;28;20431;-72
2022/12/09 17:00:58;;;;;;;18.33;7.65;;;3.50;1.00;;;;;;5077242;28;20182;-71
2022/12/09 17:03:38;;;;;;;12.68;7.47;;;3.50;1.00;;;;;;5078222;28;20206;-72
2022/12/09 17:06:04;;;;;;;172.00;48.88;;;3.50;1.00;;;;;;5077911;28;20210;-72
2022/12/09 17:08:33;;;;;;;186.95;54.67;;;3.50;1.00;;;;;;5080029;28;20211;-71
2022/12/09 17:10:59;;;;;;;199.90;110.55;;;3.50;1.00;;;;;;5086632;28;20674;-71
2022/12/09 17:13:26;;;;;;;226.70;70.82;;;3.40;1.00;;;;;;5082805;28;20660;-73
2022/12/09 17:15:57;;;;;;;66.70;26.63;;;3.40;1.00;;;;;;5078322;28;20221;-73
2022/12/09 17:18:26;;;;;;;39.33;19.50;;;3.40;1.00;;;;;;5075336;28;20173;-73
2022/12/09 17:21:03;;;;;;;12.05;7.50;;;3.40;1.00;;;;;;5077512;28;20178;-73
2022/12/09 17:23:30;;;;;;;16.75;8.60;;;3.30;1.00;;;;;;5083875;28;20262;-72
2022/12/09 17:26:00;;;;;;;13.70;8.93;;;3.30;1.00;;;;;;5089233;28;20637;-72
2022/12/09 17:28:26;;;;;;;17.23;9.38;;;3.30;1.00;;;;;;5088605;28;20186;-71
2022/12/09 17:30:52;;;;;;;13.35;7.82;;;3.50;1.00;;;;;;5076366;28;21853;-72
2022/12/09 17:33:18;;;;;;;13.23;8.90;;;3.20;1.00;;;;;;5078496;28;20216;-71
2022/12/09 17:35:44;;;;;;;13.07;9.00;;;3.30;1.00;;;;;;5075684;28;21913;-71
2022/12/09 17:38:10;;;;;;;19.07;11.20;;;3.30;1.00;;;;;;5077605;28;20265;-72
2022/12/09 17:40:36;;;;;;;15.73;7.30;;;3.30;1.00;;;;;;5071300;28;20414;-71
2022/12/09 17:43:02;;;;;;;17.10;8.57;;;3.30;1.00;;;;;;5074700;28;20186;-71
2022/12/09 17:45:28;;;;;;;15.67;9.07;;;3.30;1.00;;;;;;5072130;28;20195;-71
2022/12/09 17:47:54;;;;;;;10.48;7.32;;;3.20;1.00;;;;;;5072578;28;20187;-72
2022/12/09 17:50:19;;;;;;;14.17;7.80;;;3.20;1.00;;;;;;5077181;28;20205;-72
2022/12/09 17:52:45;;;;;;;15.10;9.47;;;3.20;1.00;;;;;;5079044;28;20644;-72
2022/12/09 17:55:11;;;;;;;13.80;9.20;;;3.20;1.00;;;;;;5076747;28;20206;-71
2022/12/09 17:57:37;;;;;;;15.23;7.70;;;3.20;1.00;;;;;;5084099;28;20167;-72
2022/12/09 18:00:19;;;;;;;12.68;8.20;;;3.20;1.00;;;;;;5083996;28;20175;-73
2022/12/09 18:02:49;;;;;;;15.65;9.68;;;3.10;1.00;;;;;;5076427;28;20183;-72
2022/12/09 18:05:37;;;;;;;18.75;8.90;;;3.20;1.00;;;;;;5083589;28;20179;-72
2022/12/09 18:08:04;;;;;;;20.75;10.13;;;3.00;1.00;;;;;;5078524;28;20206;-73
2022/12/09 18:10:37;;;;;;;15.15;10.10;;;3.00;1.00;;;;;;5076213;28;20178;-73
2022/12/09 18:13:06;;;;;;;18.05;9.90;;;3.10;1.00;;;;;;5076416;28;20217;-71
2022/12/09 18:15:35;;;;;;;24.95;11.32;;;3.10;1.00;;;;;;5079514;28;20202;-71
2022/12/09 18:18:01;;;;;;;14.60;8.90;;;3.10;1.00;;;;;;5076508;28;20175;-71
2022/12/09 18:20:27;;;;;;;19.70;11.07;;;3.10;1.00;;;;;;5080578;28;20181;-72
2022/12/09 18:22:53;;;;;;;18.37;10.57;;;3.10;1.00;;;;;;5083521;28;20202;-72
2022/12/09 18:25:18;;;;;;;21.57;10.73;;;3.10;1.00;;;;;;5079417;28;20190;-72
2022/12/09 18:27:44;;;;;;;18.53;9.97;;;3.10;1.00;;;;;;5076526;28;20448;-72
2022/12/09 18:30:10;;;;;;;18.80;10.80;;;3.10;1.00;;;;;;5085875;28;20251;-72
2022/12/09 18:32:36;;;;;;;23.77;11.90;;;3.10;1.00;;;;;;5076247;28;20190;-72
2022/12/09 18:35:02;;;;;;;17.73;11.60;;;3.00;1.00;;;;;;5080818;28;20198;-72
2022/12/09 18:37:29;;;;;;;19.03;11.13;;;3.00;1.00;;;;;;5085407;28;20179;-72
2022/12/09 18:39:55;;;;;;;21.35;11.75;;;3.00;1.00;;;;;;5082342;28;20507;-72
2022/12/09 18:42:20;;;;;;;17.07;11.07;;;3.00;1.00;;;;;;5085685;28;20201;-72
2022/12/09 18:44:48;;;;;;;17.70;11.93;;;3.00;1.00;;;;;;5081215;28;20174;-74
2022/12/09 18:47:19;;;;;;;21.40;13.13;;;3.00;1.00;;;;;;5077371;28;20248;-71
2022/12/09 18:49:49;;;;;;;18.13;10.90;;;3.00;1.00;;;;;;5083149;28;20183;-72
2022/12/09 18:52:19;;;;;;;24.70;12.65;;;3.00;1.00;;;;;;5088822;28;20538;-71
2022/12/09 18:54:46;;;;;;;22.30;12.85;;;3.00;1.00;;;;;;5090640;28;20580;-72
2022/12/09 18:57:12;;;;;;;20.25;12.48;;;3.00;1.00;;;;;;5084616;28;20175;-73
2022/12/09 18:59:38;;;;;;;19.00;12.07;;;3.00;1.00;;;;;;5080672;28;20186;-72
2022/12/09 19:02:13;;;;;;;20.77;11.80;;;3.00;1.00;;;;;;5094875;28;20621;-73
2022/12/09 19:04:49;;;;;;;20.70;12.85;;;3.00;1.00;;;;;;5080049;28;20182;-73
2022/12/09 19:07:19;;;;;;;24.35;13.02;;;3.00;1.00;;;;;;5078396;28;20281;-72
2022/12/09 19:09:45;;;;;;;24.38;13.07;;;3.00;1.00;;;;;;5080132;28;20251;-72
2022/12/09 19:12:11;;;;;;;23.67;13.27;;;3.00;1.00;;;;;;5074685;28;20608;-71
2022/12/09 19:14:43;;;;;;;22.77;13.30;;;3.00;1.00;;;;;;5075740;28;20178;-74
2022/12/09 19:17:13;;;;;;;23.77;13.45;;;3.10;1.00;;;;;;5091377;28;20645;-82
2022/12/09 19:19:46;;;;;;;20.10;12.73;;;3.10;1.00;;;;;;5077460;28;20546;-82
2022/12/09 19:23:07;;;;;;;21.20;12.93;;;3.10;1.00;;;;;;5090349;28;20178;-85